createdAt,value
2022-12-31T00:01:43.927Z,1.77
2022-12-31T00:04:11.827Z,2.40
2022-12-31T00:06:39.712Z,1.67
2022-12-31T00:09:09.502Z,2.20
2022-12-31T00:11:37.658Z,1.85
2022-12-31T00:14:05.916Z,2.15
2022-12-31T00:16:36.478Z,1.77
2022-12-31T00:19:05.843Z,1.90
2022-12-31T00:21:34.481Z,2.33
2022-12-31T00:24:02.731Z,2.03
2022-12-31T00:26:33.707Z,2.10
2022-12-31T00:29:02.457Z,2.00
2022-12-31T00:31:31.588Z,2.25
2022-12-31T00:34:00.055Z,2.33
2022-12-31T00:36:30.178Z,3.00
2022-12-31T00:38:59.096Z,2.42
2022-12-31T00:41:27.599Z,2.13
2022-12-31T00:43:57.064Z,2.70
2022-12-31T00:46:25.280Z,2.25
2022-12-31T00:48:53.374Z,2.40
2022-12-31T00:51:22.704Z,2.20
2022-12-31T00:53:50.947Z,2.55
2022-12-31T00:56:21.350Z,2.20
2022-12-31T00:58:49.642Z,2.60
2022-12-31T01:01:21.501Z,2.75
2022-12-31T01:03:51.302Z,2.63
2022-12-31T01:06:19.617Z,2.72
2022-12-31T01:08:49.401Z,2.22
2022-12-31T01:11:22.290Z,2.03
2022-12-31T01:13:52.352Z,2.28
2022-12-31T01:16:23.372Z,2.60
2022-12-31T01:18:51.662Z,2.80
2022-12-31T01:21:20.135Z,2.10
2022-12-31T01:23:47.992Z,2.80
2022-12-31T01:26:17.702Z,3.40
2022-12-31T01:28:45.535Z,2.58
2022-12-31T01:31:15.124Z,2.90
2022-12-31T01:33:44.768Z,2.97
2022-12-31T01:36:13.613Z,2.67
2022-12-31T01:38:41.921Z,3.03
2022-12-31T01:41:12.702Z,3.30
2022-12-31T01:43:46.285Z,3.58
2022-12-31T01:46:16.894Z,2.50
2022-12-31T01:48:46.602Z,2.83
2022-12-31T01:51:14.384Z,3.63
2022-12-31T01:53:42.528Z,2.80
2022-12-31T01:56:10.430Z,3.65
2022-12-31T01:58:41.496Z,2.95
2022-12-31T02:01:10.761Z,3.03
2022-12-31T02:03:38.587Z,3.00
2022-12-31T02:06:11.147Z,3.22
2022-12-31T02:08:42.108Z,3.30
2022-12-31T02:11:28.483Z,3.30
2022-12-31T02:13:59.019Z,3.08
2022-12-31T02:16:32.193Z,2.75
2022-12-31T02:19:09.907Z,3.33
2022-12-31T02:21:55.407Z,3.13
2022-12-31T02:24:37.304Z,3.03
2022-12-31T02:27:08.616Z,3.15
2022-12-31T02:30:01.622Z,3.03
2022-12-31T02:32:35.879Z,3.50
2022-12-31T02:35:09.011Z,2.53
2022-12-31T02:37:37.994Z,3.53
2022-12-31T02:40:09.847Z,3.03
2022-12-31T02:42:37.731Z,3.42
2022-12-31T02:45:08.510Z,3.25
2022-12-31T02:47:48.292Z,2.47
2022-12-31T02:50:28.980Z,3.53
2022-12-31T02:53:04.667Z,3.03
2022-12-31T02:55:37.795Z,2.92
2022-12-31T02:58:14.277Z,2.85
2022-12-31T03:01:04.414Z,2.60
2022-12-31T03:03:32.766Z,2.35
2022-12-31T03:06:03.181Z,2.85
2022-12-31T03:08:31.220Z,3.15
2022-12-31T03:10:59.091Z,2.50
2022-12-31T03:13:26.410Z,2.17
2022-12-31T03:15:55.699Z,2.60
2022-12-31T03:18:43.744Z,1.85
2022-12-31T03:21:30.507Z,2.58
2022-12-31T03:24:15.740Z,2.75
2022-12-31T03:26:43.741Z,2.70
2022-12-31T03:29:11.643Z,2.65
2022-12-31T03:31:41.416Z,2.42
2022-12-31T03:34:09.383Z,2.58
2022-12-31T03:36:37.244Z,2.38
2022-12-31T03:39:06.035Z,3.10
2022-12-31T03:41:33.912Z,2.70
2022-12-31T03:44:01.758Z,3.28
2022-12-31T03:46:29.727Z,2.78
2022-12-31T03:48:59.031Z,3.25
2022-12-31T03:51:26.928Z,3.15
2022-12-31T03:53:54.792Z,2.92
2022-12-31T03:56:22.805Z,3.10
2022-12-31T03:58:50.827Z,3.53
2022-12-31T04:01:19.621Z,3.38
2022-12-31T04:03:47.599Z,3.40
2022-12-31T04:06:16.923Z,3.28
2022-12-31T04:08:47.710Z,3.25
2022-12-31T04:11:20.652Z,3.47
2022-12-31T04:13:49.012Z,3.88
2022-12-31T04:16:16.877Z,3.78
2022-12-31T04:18:44.809Z,3.88
2022-12-31T04:21:12.637Z,3.72
2022-12-31T04:23:42.646Z,3.85
2022-12-31T04:26:10.530Z,2.85
2022-12-31T04:28:38.382Z,3.92
2022-12-31T04:31:06.580Z,4.45
2022-12-31T04:33:34.474Z,4.20
2022-12-31T04:36:02.420Z,4.35
2022-12-31T04:38:30.551Z,4.88
2022-12-31T04:41:18.126Z,3.97
2022-12-31T04:43:47.479Z,5.20
2022-12-31T04:46:15.812Z,4.50
2022-12-31T04:48:43.934Z,3.88
2022-12-31T04:51:12.152Z,4.72
2022-12-31T04:53:40.049Z,4.03
2022-12-31T04:56:11.925Z,4.68
2022-12-31T04:58:40.666Z,3.67
2022-12-31T05:01:10.126Z,4.40
2022-12-31T05:03:38.511Z,3.75
2022-12-31T05:06:07.883Z,3.28
2022-12-31T05:08:36.180Z,4.32
2022-12-31T05:11:04.087Z,4.47
2022-12-31T05:13:33.847Z,3.92
2022-12-31T05:16:02.073Z,4.70
2022-12-31T05:18:30.396Z,3.80
2022-12-31T05:20:58.368Z,3.72
2022-12-31T05:23:26.902Z,3.95
2022-12-31T05:25:55.292Z,3.03
2022-12-31T05:28:23.221Z,4.25
2022-12-31T05:30:52.511Z,4.30
2022-12-31T05:33:20.671Z,3.33
2022-12-31T05:35:48.525Z,3.58
2022-12-31T05:38:16.472Z,5.10
2022-12-31T05:40:44.393Z,3.42
2022-12-31T05:43:12.255Z,3.38
2022-12-31T05:45:40.110Z,4.50
2022-12-31T05:48:09.355Z,4.20
2022-12-31T05:50:37.259Z,3.28
2022-12-31T05:53:05.369Z,3.70
2022-12-31T05:55:33.261Z,3.22
2022-12-31T05:58:01.068Z,3.33
2022-12-31T06:00:28.995Z,2.80
2022-12-31T06:02:57.068Z,3.33
2022-12-31T06:05:27.695Z,3.70
2022-12-31T06:07:55.525Z,3.65
2022-12-31T06:10:23.415Z,3.45
2022-12-31T06:12:51.332Z,3.20
2022-12-31T06:15:19.593Z,3.28
2022-12-31T06:17:47.512Z,3.90
2022-12-31T06:20:15.433Z,3.53
2022-12-31T06:22:44.633Z,3.55
2022-12-31T06:25:12.482Z,3.55
2022-12-31T06:27:40.449Z,3.45
2022-12-31T06:30:09.914Z,2.92
2022-12-31T06:32:39.336Z,3.10
2022-12-31T06:35:08.071Z,2.60
2022-12-31T06:37:36.294Z,2.30
2022-12-31T06:40:06.754Z,2.33
2022-12-31T06:42:34.732Z,2.25
2022-12-31T06:45:02.706Z,1.73
2022-12-31T06:47:30.571Z,2.10
2022-12-31T06:49:58.470Z,2.20
2022-12-31T06:52:26.406Z,1.80
2022-12-31T06:54:54.824Z,1.90
2022-12-31T06:57:24.749Z,1.55
2022-12-31T06:59:53.200Z,1.50
2022-12-31T07:02:31.275Z,1.80
2022-12-31T07:05:10.027Z,1.30
2022-12-31T07:07:46.262Z,1.27
2022-12-31T07:10:29.009Z,1.27
2022-12-31T07:13:06.639Z,1.00
2022-12-31T07:15:46.479Z,1.65
2022-12-31T07:18:24.182Z,1.25
2022-12-31T07:20:52.732Z,1.20
2022-12-31T07:23:21.223Z,1.20
2022-12-31T07:25:56.044Z,1.42
2022-12-31T07:28:38.788Z,1.33
2022-12-31T07:31:09.261Z,1.50
2022-12-31T07:33:47.409Z,1.65
2022-12-31T07:36:24.798Z,1.38
2022-12-31T07:38:56.129Z,1.30
2022-12-31T07:41:43.852Z,1.23
2022-12-31T07:44:21.589Z,1.30
2022-12-31T07:46:55.648Z,1.30
2022-12-31T07:49:24.841Z,1.60
2022-12-31T07:51:53.292Z,0.90
2022-12-31T07:54:21.270Z,1.52
2022-12-31T07:56:49.806Z,1.20
2022-12-31T07:59:28.713Z,1.42
2022-12-31T08:02:00.831Z,1.40
2022-12-31T08:04:31.988Z,1.50
2022-12-31T08:07:05.827Z,1.70
2022-12-31T08:09:40.993Z,1.80
2022-12-31T08:12:09.809Z,2.60
2022-12-31T08:14:45.146Z,1.90
2022-12-31T08:17:14.501Z,2.28
2022-12-31T08:19:42.960Z,2.05
2022-12-31T08:22:23.224Z,1.85
2022-12-31T08:25:00.296Z,2.00
2022-12-31T08:27:36.266Z,2.60
2022-12-31T08:30:09.018Z,2.03
2022-12-31T08:32:40.952Z,2.65
2022-12-31T08:35:20.347Z,2.00
2022-12-31T08:37:54.479Z,2.28
2022-12-31T08:40:26.416Z,2.17
2022-12-31T08:43:08.177Z,2.45
2022-12-31T08:45:39.567Z,2.53
2022-12-31T08:48:17.406Z,2.05
2022-12-31T08:50:45.676Z,2.03
2022-12-31T08:53:13.972Z,1.67
2022-12-31T08:55:43.127Z,1.58
2022-12-31T08:58:22.072Z,2.10
2022-12-31T09:00:54.549Z,2.30
2022-12-31T09:03:41.008Z,2.00
2022-12-31T09:06:14.724Z,1.77
2022-12-31T09:08:48.909Z,1.67
2022-12-31T09:11:23.410Z,1.83
2022-12-31T09:14:04.641Z,1.55
2022-12-31T09:16:40.190Z,1.80
2022-12-31T09:19:09.757Z,1.70
2022-12-31T09:21:38.121Z,1.70
2022-12-31T09:24:09.535Z,0.90
2022-12-31T09:26:45.453Z,1.27
2022-12-31T09:29:24.286Z,1.30
2022-12-31T09:31:57.043Z,0.80
2022-12-31T09:34:28.317Z,1.20
2022-12-31T09:36:58.848Z,1.02
2022-12-31T09:39:34.638Z,1.00
2022-12-31T09:42:39.891Z,0.85
2022-12-31T09:45:41.469Z,0.90
2022-12-31T09:48:42.256Z,0.90
2022-12-31T09:51:25.692Z,0.73
2022-12-31T09:54:25.181Z,0.80
2022-12-31T09:57:12.865Z,0.70
2022-12-31T09:59:47.822Z,0.93
2022-12-31T10:02:24.360Z,0.80
2022-12-31T10:05:19.368Z,0.65
2022-12-31T10:07:53.861Z,0.80
2022-12-31T10:10:24.565Z,0.90
2022-12-31T10:13:12.551Z,0.70
2022-12-31T10:16:03.739Z,0.50
2022-12-31T10:18:45.185Z,0.40
2022-12-31T10:21:22.325Z,0.90
2022-12-31T10:24:10.564Z,1.10
2022-12-31T10:26:52.896Z,0.70
2022-12-31T10:29:26.476Z,0.75
2022-12-31T10:32:05.451Z,0.82
2022-12-31T10:34:43.037Z,0.82
2022-12-31T10:37:16.256Z,0.63
2022-12-31T10:39:51.009Z,0.68
2022-12-31T10:42:44.754Z,0.63
2022-12-31T10:45:47.450Z,0.75
2022-12-31T10:48:36.718Z,0.80
2022-12-31T10:51:26.963Z,0.90
2022-12-31T10:54:11.967Z,0.65
2022-12-31T10:57:06.941Z,1.13
2022-12-31T11:00:03.944Z,0.90
2022-12-31T11:02:56.575Z,1.00
2022-12-31T11:05:57.943Z,1.15
2022-12-31T11:08:45.818Z,1.05
2022-12-31T11:11:23.454Z,1.27
2022-12-31T11:14:27.672Z,1.00
2022-12-31T11:17:08.068Z,0.93
2022-12-31T11:19:42.178Z,1.58
2022-12-31T11:22:27.068Z,1.27
2022-12-31T11:25:22.517Z,1.17
2022-12-31T11:28:03.490Z,1.27
2022-12-31T11:30:38.415Z,1.45
2022-12-31T11:33:17.814Z,1.40
2022-12-31T11:36:04.819Z,1.00
2022-12-31T11:38:37.183Z,1.00
2022-12-31T11:41:07.834Z,1.10
2022-12-31T11:43:40.912Z,1.00
2022-12-31T11:46:41.386Z,0.98
2022-12-31T11:49:41.913Z,0.90
2022-12-31T11:52:46.850Z,1.10
2022-12-31T11:55:29.751Z,0.80
2022-12-31T11:58:00.899Z,0.70
2022-12-31T12:00:30.615Z,0.68
2022-12-31T12:03:00.562Z,1.00
2022-12-31T12:05:29.552Z,0.70
2022-12-31T12:07:57.603Z,0.98
2022-12-31T12:10:35.242Z,0.98
2022-12-31T12:13:13.202Z,0.88
2022-12-31T12:15:44.447Z,0.90
2022-12-31T12:18:24.747Z,0.80
2022-12-31T12:20:52.936Z,0.73
2022-12-31T12:23:25.395Z,0.88
2022-12-31T12:25:53.802Z,0.80
2022-12-31T12:28:23.620Z,0.63
2022-12-31T12:30:59.140Z,0.60
2022-12-31T12:33:29.611Z,0.77
2022-12-31T12:36:08.927Z,0.60
2022-12-31T12:38:37.619Z,0.60
2022-12-31T12:41:07.653Z,0.70
2022-12-31T12:43:37.170Z,0.73
2022-12-31T12:46:07.957Z,0.68
2022-12-31T12:48:38.698Z,0.63
2022-12-31T12:51:19.997Z,0.50
2022-12-31T12:53:55.054Z,0.60
2022-12-31T12:56:32.045Z,0.70
2022-12-31T12:59:27.651Z,0.55
2022-12-31T13:02:04.283Z,0.52
2022-12-31T13:04:44.742Z,0.30
2022-12-31T13:07:24.132Z,0.50
2022-12-31T13:10:03.384Z,0.43
2022-12-31T13:13:05.093Z,0.52
2022-12-31T13:15:30.052Z,0.40
2022-12-31T13:18:06.102Z,0.52
2022-12-31T13:20:37.689Z,0.90
2022-12-31T13:23:11.456Z,0.80
2022-12-31T13:25:49.162Z,0.68
2022-12-31T13:28:17.839Z,0.60
2022-12-31T13:30:47.877Z,0.60
2022-12-31T13:33:19.206Z,0.60
2022-12-31T13:35:50.235Z,0.45
2022-12-31T13:38:21.539Z,0.60
2022-12-31T13:40:55.018Z,0.50
2022-12-31T13:43:27.724Z,0.60
2022-12-31T13:46:03.075Z,0.60
2022-12-31T13:48:37.168Z,0.63
2022-12-31T13:51:11.166Z,0.70
2022-12-31T13:53:42.724Z,0.40
2022-12-31T13:56:13.982Z,0.50
2022-12-31T13:58:44.626Z,0.50
2022-12-31T14:01:17.395Z,0.50
2022-12-31T14:03:53.177Z,0.50
2022-12-31T14:06:26.339Z,0.55
2022-12-31T14:08:54.305Z,0.50
2022-12-31T14:11:37.755Z,0.40
2022-12-31T14:14:15.867Z,0.60
2022-12-31T14:16:48.822Z,2.05
2022-12-31T14:19:30.691Z,0.55
2022-12-31T14:22:03.863Z,0.30
2022-12-31T14:24:41.468Z,0.43
2022-12-31T14:27:11.854Z,0.50
2022-12-31T14:29:42.755Z,0.90
2022-12-31T14:32:39.121Z,0.50
2022-12-31T14:35:20.237Z,0.75
2022-12-31T14:37:54.040Z,0.63
2022-12-31T14:40:28.017Z,1.00
2022-12-31T14:43:06.635Z,0.52
2022-12-31T14:45:45.757Z,0.70
2022-12-31T14:48:22.485Z,0.70
2022-12-31T14:50:52.076Z,0.40
2022-12-31T14:53:24.002Z,0.35
2022-12-31T14:55:59.037Z,0.63
2022-12-31T14:58:32.531Z,0.52
2022-12-31T15:01:01.843Z,0.70
2022-12-31T15:03:45.512Z,1.02
2022-12-31T15:06:33.227Z,0.60
2022-12-31T15:09:08.710Z,0.88
2022-12-31T15:12:05.213Z,1.40
2022-12-31T15:14:47.610Z,1.20
2022-12-31T15:17:24.828Z,0.75
2022-12-31T15:20:23.577Z,1.40
2022-12-31T15:22:53.687Z,0.88
2022-12-31T15:25:23.851Z,1.08
2022-12-31T15:27:51.935Z,1.27
2022-12-31T15:30:35.400Z,0.90
2022-12-31T15:33:04.669Z,0.75
2022-12-31T15:35:44.557Z,0.90
2022-12-31T15:38:31.030Z,0.80
2022-12-31T15:40:59.711Z,0.88
2022-12-31T15:43:34.788Z,0.95
2022-12-31T15:46:03.399Z,0.50
2022-12-31T15:48:36.358Z,0.80
2022-12-31T15:53:35.985Z,0.50
2022-12-31T15:56:04.355Z,0.70
2022-12-31T15:58:35.686Z,0.60
2022-12-31T16:01:10.908Z,2.05
2022-12-31T16:03:44.109Z,0.93
2022-12-31T16:06:13.712Z,1.08
2022-12-31T16:08:46.055Z,1.77
2022-12-31T16:11:13.956Z,1.00
2022-12-31T16:13:43.485Z,1.40
2022-12-31T16:16:22.486Z,2.38
2022-12-31T16:18:51.155Z,2.22
2022-12-31T16:21:39.896Z,1.30
2022-12-31T16:24:30.031Z,2.58
2022-12-31T16:27:00.317Z,2.03
2022-12-31T16:29:28.398Z,3.15
2022-12-31T16:31:56.726Z,4.38
2022-12-31T16:34:25.859Z,4.95
2022-12-31T16:36:58.469Z,5.47
2022-12-31T16:39:32.703Z,5.82
2022-12-31T16:42:21.245Z,7.20
2022-12-31T16:44:51.362Z,5.45
2022-12-31T16:47:22.421Z,4.97
2022-12-31T16:49:53.051Z,6.72
2022-12-31T16:52:27.915Z,7.43
2022-12-31T16:54:57.522Z,7.15
2022-12-31T16:57:27.524Z,4.07
2022-12-31T16:59:56.909Z,5.65
2022-12-31T17:02:28.574Z,6.00
2022-12-31T17:04:56.839Z,5.95
2022-12-31T17:07:42.546Z,4.90
2022-12-31T17:10:21.592Z,4.50
2022-12-31T17:15:44.051Z,4.97
2022-12-31T17:18:18.273Z,5.15
2022-12-31T17:20:46.201Z,4.57
2022-12-31T17:23:21.019Z,4.68
2022-12-31T17:25:50.225Z,4.82
2022-12-31T17:28:23.103Z,5.07
2022-12-31T17:33:31.686Z,4.15
2022-12-31T17:36:16.097Z,5.63
2022-12-31T17:38:44.348Z,4.93
2022-12-31T17:41:24.003Z,4.97
2022-12-31T17:43:53.407Z,4.45
2022-12-31T17:46:21.770Z,7.38
2022-12-31T17:48:52.843Z,6.53
2022-12-31T17:51:24.646Z,7.22
2022-12-31T17:53:52.632Z,5.65
2022-12-31T17:56:21.893Z,4.95
2022-12-31T17:58:51.394Z,5.32
2022-12-31T18:01:21.844Z,7.68
2022-12-31T18:03:50.087Z,11.70
2022-12-31T18:06:19.264Z,12.68
2022-12-31T18:08:47.170Z,9.18
2022-12-31T18:11:17.729Z,8.18
2022-12-31T18:13:47.062Z,7.93
2022-12-31T18:16:15.349Z,13.13
2022-12-31T18:18:45.164Z,6.82
2022-12-31T18:21:17.628Z,4.72
2022-12-31T18:23:47.071Z,5.85
2022-12-31T18:26:16.231Z,12.40
2022-12-31T18:28:44.115Z,7.55
2022-12-31T18:31:16.580Z,9.30
2022-12-31T18:33:44.963Z,10.05
2022-12-31T18:36:13.879Z,6.60
2022-12-31T18:38:42.319Z,6.43
2022-12-31T18:41:17.110Z,10.38
2022-12-31T18:43:45.034Z,20.08
2022-12-31T18:46:16.589Z,8.88
2022-12-31T18:48:44.674Z,6.18
2022-12-31T18:51:15.136Z,5.80
2022-12-31T18:53:43.035Z,7.75
2022-12-31T18:56:12.688Z,4.82
2022-12-31T18:58:40.628Z,9.32
2022-12-31T19:01:25.083Z,9.38
2022-12-31T19:03:53.201Z,11.63
2022-12-31T19:06:21.087Z,8.18
2022-12-31T19:08:48.984Z,8.32
2022-12-31T19:11:16.943Z,9.52
2022-12-31T19:13:44.940Z,9.70
2022-12-31T19:16:13.904Z,5.10
2022-12-31T19:18:43.601Z,8.95
2022-12-31T19:21:16.668Z,6.22
2022-12-31T19:23:44.701Z,9.60
2022-12-31T19:26:16.272Z,9.48
2022-12-31T19:28:44.794Z,9.45
2022-12-31T19:31:13.016Z,12.63
2022-12-31T19:33:41.010Z,17.80
2022-12-31T19:36:15.378Z,18.33
2022-12-31T19:38:45.218Z,10.90
2022-12-31T19:41:17.256Z,8.13
2022-12-31T19:43:45.783Z,7.93
2022-12-31T19:46:14.738Z,6.43
2022-12-31T19:48:42.827Z,4.53
2022-12-31T19:51:13.769Z,15.43
2022-12-31T19:53:41.687Z,24.27
2022-12-31T19:56:12.471Z,14.55
2022-12-31T19:58:40.339Z,10.60
2022-12-31T20:01:09.374Z,4.95
2022-12-31T20:03:37.433Z,5.15
2022-12-31T20:06:07.801Z,7.05
2022-12-31T20:08:37.718Z,16.63
2022-12-31T20:11:09.693Z,12.40
2022-12-31T20:13:38.021Z,5.10
2022-12-31T20:16:08.133Z,6.88
2022-12-31T20:18:37.941Z,12.77
2022-12-31T20:21:09.362Z,9.68
2022-12-31T20:23:38.635Z,9.10
2022-12-31T20:26:06.817Z,10.65
2022-12-31T20:28:34.731Z,9.25
2022-12-31T20:31:06.347Z,24.60
2022-12-31T20:33:34.748Z,9.30
2022-12-31T20:36:02.994Z,6.00
2022-12-31T20:38:30.983Z,6.45
2022-12-31T20:41:05.516Z,16.50
2022-12-31T20:43:33.824Z,8.95
2022-12-31T20:46:10.955Z,5.10
2022-12-31T20:48:42.728Z,4.13
2022-12-31T20:51:10.813Z,3.38
2022-12-31T20:53:38.759Z,3.08
2022-12-31T20:56:09.382Z,5.03
2022-12-31T20:58:37.451Z,7.95
2022-12-31T21:01:07.781Z,5.05
2022-12-31T21:06:24.061Z,48.95
2022-12-31T21:08:52.069Z,12.43
2022-12-31T21:11:38.693Z,18.52
2022-12-31T21:14:06.736Z,13.25
2022-12-31T21:16:34.608Z,19.05
2022-12-31T21:19:02.729Z,27.98
2022-12-31T21:21:30.651Z,33.85
2022-12-31T21:23:58.503Z,8.68
2022-12-31T21:26:28.003Z,7.28
2022-12-31T21:28:55.890Z,17.95
2022-12-31T21:31:23.770Z,15.38
2022-12-31T21:33:51.694Z,10.57
2022-12-31T21:36:19.622Z,7.30
2022-12-31T21:38:47.467Z,5.25
2022-12-31T21:41:33.226Z,17.55
2022-12-31T21:44:03.559Z,16.40
2022-12-31T21:46:31.641Z,10.82
2022-12-31T21:49:00.837Z,8.65
2022-12-31T21:51:29.184Z,8.80
2022-12-31T21:53:57.409Z,10.38
2022-12-31T21:56:24.364Z,9.75
2022-12-31T21:59:15.346Z,6.55
2022-12-31T22:02:02.742Z,10.38
2022-12-31T22:07:18.836Z,5.53
2022-12-31T22:09:46.753Z,4.88
2022-12-31T22:12:14.627Z,7.53
2022-12-31T22:15:14.969Z,8.23
2022-12-31T22:17:31.645Z,7.57
2022-12-31T22:22:47.483Z,13.80
2022-12-31T22:25:16.750Z,10.57
2022-12-31T22:28:04.277Z,7.97
2022-12-31T22:30:32.957Z,5.32
2022-12-31T22:33:02.177Z,5.07
2022-12-31T22:35:30.097Z,3.40
2022-12-31T22:38:03.276Z,7.10
2022-12-31T22:40:34.612Z,10.07
2022-12-31T22:43:02.493Z,8.38
2022-12-31T22:45:30.627Z,3.95
2022-12-31T22:47:58.559Z,5.97
2022-12-31T22:50:27.998Z,12.15
2022-12-31T22:52:55.837Z,5.43
2022-12-31T22:55:23.819Z,4.47
2022-12-31T22:57:52.406Z,5.03
2022-12-31T23:00:20.365Z,3.90
2022-12-31T23:02:48.667Z,24.20
2022-12-31T23:05:17.382Z,26.55
2022-12-31T23:07:48.915Z,51.00
2022-12-31T23:10:34.718Z,32.97
2022-12-31T23:13:16.685Z,24.17
2022-12-31T23:16:03.374Z,40.90
2022-12-31T23:18:49.110Z,22.50
2022-12-31T23:21:34.566Z,15.27
2022-12-31T23:24:04.448Z,52.38
2022-12-31T23:26:32.310Z,27.65
2022-12-31T23:29:00.593Z,25.48
2022-12-31T23:31:28.912Z,11.13
2022-12-31T23:33:56.805Z,15.85
2022-12-31T23:36:24.872Z,14.43
2022-12-31T23:38:54.814Z,13.13
2022-12-31T23:41:24.356Z,10.27
2022-12-31T23:43:52.249Z,7.63
2022-12-31T23:46:20.120Z,9.15
2022-12-31T23:48:48.061Z,8.35
2022-12-31T23:51:15.892Z,6.93
2022-12-31T23:53:43.749Z,7.55
2022-12-31T23:56:19.279Z,6.20
2022-12-31T23:58:56.203Z,5.32
